createdAt,value
2022-12-13T00:00:27.532Z,-6.88
2022-12-13T00:15:23.914Z,-7.01
2022-12-13T00:30:23.989Z,-6.91
2022-12-13T00:45:32.970Z,-7.18
2022-12-13T01:00:33.665Z,-7.31
2022-12-13T01:15:23.000Z,-7.38
2022-12-13T01:30:23.561Z,-7.51
2022-12-13T01:45:23.122Z,-7.36
2022-12-13T02:00:33.104Z,-7.71
2022-12-13T02:15:22.830Z,-7.78
2022-12-13T02:30:23.281Z,-7.98
2022-12-13T02:45:23.743Z,-8.03
2022-12-13T03:00:22.976Z,-7.81
2022-12-13T03:15:23.517Z,-7.81
2022-12-13T03:30:25.321Z,-8.28
2022-12-13T03:45:23.265Z,-8.18
2022-12-13T04:00:23.140Z,-8.48
2022-12-13T04:15:23.246Z,-8.63
2022-12-13T04:30:23.451Z,-8.66
2022-12-13T04:45:23.354Z,-8.38
2022-12-13T05:00:23.520Z,-6.44
2022-12-13T05:15:23.427Z,-5.94
2022-12-13T05:30:23.477Z,-5.94
2022-12-13T05:45:23.360Z,-6.44
2022-12-13T06:00:30.363Z,-6.44
2022-12-13T06:15:23.687Z,-6.44
2022-12-13T06:30:23.934Z,-6.44
2022-12-13T06:45:23.545Z,-6.94
2022-12-13T06:55:47.828Z,-6.94
2022-12-13T07:08:04.176Z,-6.94
2022-12-13T07:15:23.836Z,-6.94
2022-12-13T07:30:30.601Z,-6.94
2022-12-13T07:45:23.755Z,-6.94
2022-12-13T08:00:30.728Z,-6.94
2022-12-13T08:15:23.859Z,-6.94
2022-12-13T08:30:23.644Z,-8.61
2022-12-13T08:45:23.337Z,-8.76
2022-12-13T09:00:24.187Z,-8.46
2022-12-13T09:15:23.630Z,-8.26
2022-12-13T09:30:26.609Z,-8.11
2022-12-13T09:45:32.076Z,-7.91
2022-12-13T10:00:30.792Z,-7.66
2022-12-13T10:15:23.380Z,-7.05
2022-12-13T10:30:28.507Z,-6.88
2022-12-13T10:45:24.156Z,-6.61
2022-12-13T11:00:37.756Z,-5.95
2022-12-13T11:15:24.440Z,-5.63
2022-12-13T11:30:24.312Z,-5.21
2022-12-13T11:45:24.332Z,-4.83
2022-12-13T12:00:34.328Z,-4.28
2022-12-13T12:15:26.638Z,-3.66
2022-12-13T12:30:24.289Z,-3.38
2022-12-13T12:45:55.898Z,-2.85
2022-12-13T13:00:34.522Z,-2.81
2022-12-13T13:15:23.995Z,-2.78
2022-12-13T13:30:24.864Z,-2.68
2022-12-13T13:45:23.627Z,-2.38
2022-12-13T14:00:34.521Z,-2.35
2022-12-13T14:15:23.991Z,-2.43
2022-12-13T14:30:28.472Z,-2.31
2022-12-13T14:45:23.061Z,-2.31
2022-12-13T14:49:28.489Z,-1.87
2022-12-13T15:01:45.577Z,-1.82
2022-12-13T15:15:23.930Z,-2.80
2022-12-13T15:30:30.591Z,-2.75
2022-12-13T15:45:23.445Z,-2.85
2022-12-13T16:00:32.974Z,-3.08
2022-12-13T16:15:29.215Z,-2.88
2022-12-13T16:30:23.531Z,-3.23
2022-12-13T16:45:41.473Z,-3.26
2022-12-13T17:00:25.956Z,-3.33
2022-12-13T17:15:23.197Z,-3.36
2022-12-13T17:30:25.107Z,-2.47
2022-12-13T17:45:23.464Z,-3.18
2022-12-13T18:03:52.622Z,-3.70
2022-12-13T18:21:58.498Z,-0.94
2022-12-13T18:31:27.205Z,-0.94
2022-12-13T18:43:44.680Z,-2.96
2022-12-13T18:51:51.789Z,-0.94
2022-12-13T19:04:09.068Z,-2.86
2022-12-13T19:15:23.466Z,-2.81
2022-12-13T19:30:24.102Z,-2.86
2022-12-13T19:45:23.622Z,-2.81
2022-12-13T20:00:25.489Z,-2.78
2022-12-13T20:15:22.958Z,-2.58
2022-12-13T20:30:23.658Z,-2.51
2022-12-13T20:45:23.352Z,-2.66
2022-12-13T21:00:23.380Z,-2.61
2022-12-13T21:15:23.253Z,-2.56
2022-12-13T21:30:23.395Z,-2.48
2022-12-13T21:45:23.575Z,-2.46
2022-12-13T22:00:28.408Z,-2.46
2022-12-13T22:15:23.495Z,-2.48
2022-12-13T22:30:23.447Z,-2.56
2022-12-13T22:45:23.445Z,-2.38
2022-12-13T23:03:06.835Z,-3.10
2022-12-13T23:15:23.475Z,-2.41
2022-12-13T23:30:23.625Z,-2.36
2022-12-13T23:45:23.514Z,-2.36
